createdAt,value
2023-01-04T08:59:33.596Z,43.15
2023-01-04T09:04:37.382Z,45.42
2023-01-04T09:09:41.148Z,48.60
2023-01-04T09:14:46.407Z,39.75
2023-01-04T09:19:50.078Z,42.85
2023-01-04T09:24:53.719Z,44.53
2023-01-04T09:29:59.045Z,44.45
2023-01-04T09:35:02.694Z,43.80
2023-01-04T09:40:07.497Z,46.25
2023-01-04T09:45:24.666Z,46.97
2023-01-04T09:50:33.456Z,42.78
2023-01-04T09:55:41.838Z,42.88
2023-01-04T10:00:51.042Z,43.63
2023-01-04T10:05:56.357Z,45.35
2023-01-04T10:11:19.259Z,41.30
2023-01-04T10:22:10.603Z,50.90
2023-01-04T10:27:25.116Z,43.83
2023-01-04T10:32:40.013Z,42.88
2023-01-04T10:37:44.154Z,45.33
2023-01-04T10:42:57.836Z,38.63
2023-01-04T10:48:08.968Z,33.28
2023-01-04T10:53:17.683Z,39.88
2023-01-04T10:58:27.558Z,46.05
2023-01-04T11:03:38.572Z,42.10
2023-01-04T11:08:50.645Z,42.75
2023-01-04T11:13:54.502Z,39.00
2023-01-04T11:19:00.268Z,39.40
2023-01-04T11:24:30.866Z,41.45
2023-01-04T11:29:38.622Z,39.00
2023-01-04T11:34:48.576Z,38.35
2023-01-04T11:39:52.206Z,40.63
2023-01-04T11:44:59.999Z,39.55
2023-01-04T11:50:06.416Z,52.28
2023-01-04T12:00:21.647Z,42.28
2023-01-04T12:05:30.300Z,32.03
2023-01-04T12:10:34.449Z,40.75
2023-01-04T12:15:46.624Z,48.97
2023-01-04T12:20:52.035Z,45.63
2023-01-04T12:25:56.636Z,35.03
2023-01-04T12:31:31.010Z,38.75
2023-01-04T12:37:05.296Z,37.20
2023-01-04T12:42:11.593Z,33.30
2023-01-04T12:47:47.645Z,39.60
2023-01-04T12:53:11.193Z,35.42
2023-01-04T12:59:23.410Z,34.40
2023-01-04T13:04:28.559Z,26.05
2023-01-04T13:09:46.423Z,24.85
2023-01-04T13:14:55.290Z,26.45
2023-01-04T13:19:58.971Z,23.88
2023-01-04T13:25:04.918Z,23.92
2023-01-04T13:30:23.299Z,24.85
2023-01-04T13:35:26.968Z,24.15
2023-01-04T13:40:34.495Z,21.98
2023-01-04T13:46:02.094Z,20.88
2023-01-04T13:51:17.047Z,23.38
2023-01-04T13:56:23.910Z,16.63
2023-01-04T14:01:30.816Z,19.55
2023-01-04T14:06:40.627Z,20.65
2023-01-04T14:11:50.592Z,23.33
2023-01-04T14:17:10.056Z,25.88
2023-01-04T14:22:50.566Z,28.50
2023-01-04T14:28:19.668Z,23.70
2023-01-04T14:33:28.605Z,25.52
2023-01-04T14:38:37.719Z,24.95
2023-01-04T14:43:49.383Z,27.35
2023-01-04T14:48:53.079Z,24.98
2023-01-04T14:53:56.734Z,29.75
2023-01-04T14:59:02.068Z,22.92
2023-01-04T15:04:06.072Z,30.30
2023-01-04T15:09:11.491Z,30.52
2023-01-04T15:14:16.944Z,29.75
2023-01-04T15:19:20.586Z,20.98
2023-01-04T15:24:24.329Z,20.33
2023-01-04T15:29:30.694Z,23.55
2023-01-04T15:39:37.529Z,21.25
2023-01-04T15:44:44.429Z,18.30
2023-01-04T15:49:48.094Z,19.00
2023-01-04T15:54:51.739Z,18.63
2023-01-04T15:59:57.189Z,18.45
2023-01-04T16:05:00.861Z,17.97
2023-01-04T16:10:04.847Z,18.13
2023-01-04T16:15:12.551Z,15.85
2023-01-04T16:20:17.635Z,15.88
2023-01-04T16:25:21.310Z,13.82
2023-01-04T16:30:29.815Z,15.35
2023-01-04T16:35:33.668Z,12.95
2023-01-04T16:40:40.021Z,18.85
2023-01-04T16:50:48.298Z,16.42
2023-01-04T16:55:51.967Z,15.70
2023-01-04T17:00:57.337Z,13.15
2023-01-04T17:06:01.028Z,13.70
2023-01-04T17:11:50.879Z,19.77
2023-01-04T17:16:37.192Z,17.25
2023-01-04T17:21:40.867Z,15.13
2023-01-04T17:26:44.651Z,15.13
2023-01-04T17:31:50.015Z,15.32
2023-01-04T17:36:53.761Z,13.83
2023-01-04T17:41:57.400Z,13.57
2023-01-04T17:47:02.783Z,8.57
2023-01-04T17:52:08.846Z,8.77
2023-01-04T18:02:18.031Z,4.75
2023-01-04T18:07:21.696Z,7.23
2023-01-04T18:12:25.342Z,1.95
2023-01-04T18:17:31.682Z,1.83
2023-01-04T18:22:35.568Z,4.32
2023-01-04T18:27:39.264Z,4.53
2023-01-04T18:32:44.570Z,1.83
2023-01-04T18:37:48.195Z,2.72
2023-01-04T18:42:52.165Z,3.33
2023-01-04T18:47:58.242Z,2.08
2023-01-04T18:53:01.907Z,2.58
2023-01-04T18:58:05.564Z,1.60
2023-01-04T19:03:18.024Z,3.15
2023-01-04T19:08:22.150Z,3.03
2023-01-04T19:13:25.839Z,2.20
2023-01-04T19:18:31.171Z,4.53
2023-01-04T19:23:34.855Z,2.77
2023-01-04T19:28:38.524Z,1.58
2023-01-04T19:33:44.006Z,2.40
2023-01-04T19:38:47.747Z,2.93
2023-01-04T19:43:51.797Z,3.58
2023-01-04T19:48:57.137Z,2.90
2023-01-04T19:54:00.774Z,1.90
2023-01-04T19:59:04.433Z,1.27
2023-01-04T20:04:09.719Z,3.88
2023-01-04T20:09:13.343Z,2.90
2023-01-04T20:14:16.979Z,2.05
2023-01-04T20:19:22.335Z,1.80
2023-01-04T20:24:25.997Z,2.17
2023-01-04T20:29:29.669Z,1.92
2023-01-04T20:34:35.056Z,1.73
2023-01-04T20:39:38.883Z,4.27
2023-01-04T20:44:42.545Z,0.80
2023-01-04T20:49:48.234Z,2.70
2023-01-04T20:54:51.908Z,1.52
2023-01-04T20:59:56.249Z,4.03
2023-01-04T21:05:01.561Z,2.65
2023-01-04T21:10:05.752Z,5.00
2023-01-04T21:15:10.297Z,4.57
2023-01-04T21:20:15.828Z,3.22
2023-01-04T21:25:19.476Z,4.50
2023-01-04T21:30:23.146Z,3.78
2023-01-04T21:35:28.925Z,4.88
2023-01-04T21:40:32.651Z,5.97
2023-01-04T21:45:39.929Z,7.78
2023-01-04T21:50:45.313Z,5.93
2023-01-04T21:55:48.967Z,5.50
2023-01-04T22:00:52.629Z,6.22
2023-01-04T22:06:02.011Z,7.25
2023-01-04T22:11:05.819Z,9.20
2023-01-04T22:16:11.489Z,8.63
2023-01-04T22:21:18.692Z,7.25
2023-01-04T22:26:22.338Z,13.82
2023-01-04T22:31:26.002Z,4.38
2023-01-04T22:36:31.355Z,3.65
2023-01-04T22:41:35.271Z,4.03
2023-01-04T22:46:42.033Z,9.55
2023-01-04T22:51:47.446Z,5.90
2023-01-04T22:56:51.738Z,7.73
2023-01-04T23:01:55.406Z,5.53
2023-01-04T23:07:02.081Z,4.47
2023-01-04T23:12:06.059Z,3.47
2023-01-04T23:17:09.738Z,3.70
2023-01-04T23:22:15.151Z,2.97
2023-01-04T23:27:20.993Z,5.23
2023-01-04T23:32:24.622Z,6.20
2023-01-04T23:37:31.924Z,7.30
2023-01-04T23:42:35.862Z,4.88
2023-01-04T23:47:39.642Z,4.18
2023-01-04T23:52:45.017Z,2.85
2023-01-04T23:57:48.622Z,3.17
